KELA

Eagle Lake Airport

Eagle Lake, Texas, USA
METAR KELA 211555Z AUTO 15007KT 10SM OVC024 11/08 A3025 RMK AO2 T01060079
Observed Flight Rules
Jan-21 @ 15:55 UTC (23 minutes ago) Marginal Visual Flight Rules
Wind Visibility Clouds
150° at 7 knots 10 miles
  • Overcast at 2,400' AGL
Temperatures Readings
Current 11°C / 52°F
Dewpoint 8°C / 46°F
Humidity 82%
Altimeter 30.25" Hg
Pressure 1024.42 hPa
Elevation 56
METAR KELA 211555Z AUTO 15007KT 10SM OVC024 11/08 A3025 RMK AO2 T01060079
Observed Flight Rules
Jan-21 @ 15:55 UTC
(23 minutes ago)
MVFR
Wind Visibility
150° at 7 knots 10 miles
Clouds
  • Overcast at 2,400' AGL
Temperature Dewpoint
11°C / 52°F 8°C / 46°F
Humidity Altimeter Pressure
82% 30.25" Hg 1024.42 hPa